Time;durP1;ratioP1;P1;durP2;ratioP2;P2;SDS_P1;SDS_P2;PMS_P1;PMS_P2;Temp;Humidity;BMP_temperature;BMP_pressure;BME280_temperature;BME280_humidity;BME280_pressure;Samples;Min_cycle;Max_cycle;Signal;HPM_P1;HPM_P2
2022/11/15 00:00:07;;;;;;;2.60;1.38;;;;;;;1.77;50.38;100205.97;4985442;28;20330;-66
2022/11/15 00:02:33;;;;;;;2.00;1.20;;;;;;;1.88;49.42;100206.19;4984987;28;20030;-65
2022/11/15 00:04:59;;;;;;;4.18;1.40;;;;;;;1.86;49.34;100205.31;4985558;28;20026;-65
2022/11/15 00:07:24;;;;;;;3.50;1.17;;;;;;;1.88;48.58;100204.53;4993951;28;20065;-64
2022/11/15 00:09:50;;;;;;;3.70;1.20;;;;;;;1.96;48.48;100211.50;4999967;28;20038;-65
2022/11/15 00:12:15;;;;;;;1.98;1.10;;;;;;;1.98;49.18;100202.16;4984966;28;20030;-65
2022/11/15 00:14:41;;;;;;;2.33;1.13;;;;;;;1.93;49.57;100206.31;4965668;28;20035;-65
2022/11/15 00:17:06;;;;;;;3.15;1.45;;;;;;;1.79;48.76;100199.19;4995116;28;20054;-65
2022/11/15 00:19:33;;;;;;;2.70;1.40;;;;;;;1.86;49.57;100203.63;4994053;28;20065;-65
2022/11/15 00:21:58;;;;;;;1.52;1.00;;;;;;;1.89;49.38;100201.13;4984617;28;20054;-65
2022/11/15 00:24:24;;;;;;;2.72;1.13;;;;;;;1.78;48.59;100191.50;5000137;28;20064;-65
2022/11/15 00:26:49;;;;;;;2.13;1.27;;;;;;;1.66;48.31;100197.22;4984546;28;20097;-65
2022/11/15 00:29:15;;;;;;;3.58;1.38;;;;;;;1.75;48.60;100187.19;4984609;28;20030;-65
2022/11/15 00:31:40;;;;;;;3.28;1.63;;;;;;;1.84;48.89;100187.41;4984612;28;20066;-65
2022/11/15 00:34:06;;;;;;;3.22;1.48;;;;;;;1.84;49.06;100197.63;4984607;28;20034;-65
2022/11/15 00:36:35;;;;;;;2.50;1.30;;;;;;;1.80;50.02;100200.94;4984252;28;20115;-64
2022/11/15 00:39:00;;;;;;;2.55;1.23;;;;;;;1.87;49.59;100186.63;4983675;28;20027;-65
2022/11/15 00:41:26;;;;;;;4.82;1.98;;;;;;;1.65;48.65;100181.00;4984333;28;20041;-64
2022/11/15 00:43:51;;;;;;;2.13;1.45;;;;;;;1.74;49.48;100182.94;4984525;28;20023;-65
2022/11/15 00:46:17;;;;;;;4.32;1.30;;;;;;;1.76;49.60;100188.94;4983254;28;20027;-64
2022/11/15 00:48:42;;;;;;;2.30;1.30;;;;;;;1.78;49.24;100187.28;4984287;28;20077;-65
2022/11/15 00:51:08;;;;;;;3.55;1.70;;;;;;;1.89;49.24;100183.25;4983858;28;20262;-66
2022/11/15 00:53:34;;;;;;;2.08;1.20;;;;;;;1.90;49.10;100171.38;4983833;28;20103;-64
2022/11/15 00:56:00;;;;;;;4.63;1.33;;;;;;;1.85;48.72;100168.72;4983596;28;20247;-64
2022/11/15 00:58:25;;;;;;;2.47;1.27;;;;;;;1.86;49.65;100160.19;4984204;28;20026;-64
2022/11/15 01:00:51;;;;;;;3.85;1.27;;;;;;;1.86;49.34;100157.66;4984252;28;20374;-64
2022/11/15 01:03:16;;;;;;;4.45;1.30;;;;;;;1.83;49.30;100155.03;4984070;28;20023;-65
2022/11/15 01:05:42;;;;;;;3.90;1.33;;;;;;;1.79;48.59;100162.59;4984367;28;20081;-65
2022/11/15 01:08:13;;;;;;;3.45;1.40;;;;;;;1.75;48.77;100137.84;4984266;28;20192;-65
2022/11/15 01:10:39;;;;;;;2.20;1.20;;;;;;;1.66;48.82;100154.66;4984383;28;20031;-65
2022/11/15 01:13:05;;;;;;;3.30;1.10;;;;;;;1.54;48.93;100156.97;4984202;28;20105;-65
2022/11/15 01:15:30;;;;;;;2.40;1.05;;;;;;;1.62;48.95;100162.22;4983820;28;20031;-65
2022/11/15 01:17:56;;;;;;;2.38;1.20;;;;;;;1.76;49.24;100150.63;4984107;28;20042;-65
2022/11/15 01:20:21;;;;;;;5.63;1.25;;;;;;;1.63;49.03;100157.16;4984079;28;20085;-66
2022/11/15 01:22:47;;;;;;;2.85;1.05;;;;;;;1.75;49.43;100146.34;4987907;28;20226;-66
2022/11/15 01:25:13;;;;;;;2.45;1.17;;;;;;;1.84;49.32;100148.22;4988846;28;20307;-65
2022/11/15 01:27:38;;;;;;;2.38;1.17;;;;;;;1.82;48.96;100140.53;4983883;28;20038;-64
2022/11/15 01:30:05;;;;;;;3.60;1.40;;;;;;;1.68;49.48;100129.16;4984153;28;20077;-65
2022/11/15 01:32:31;;;;;;;2.97;1.35;;;;;;;1.71;49.96;100131.78;4983752;28;20027;-65
2022/11/15 01:34:57;;;;;;;3.15;1.30;;;;;;;1.76;49.33;100131.91;4984443;28;20227;-65
2022/11/15 01:37:22;;;;;;;5.45;1.50;;;;;;;1.65;50.22;100124.00;4983543;28;20027;-65
2022/11/15 01:39:48;;;;;;;3.35;1.40;;;;;;;1.60;49.65;100112.84;4983988;28;20046;-65
2022/11/15 01:42:14;;;;;;;2.33;1.40;;;;;;;1.64;49.58;100132.47;4984017;28;20031;-65
2022/11/15 01:44:41;;;;;;;4.75;1.30;;;;;;;1.57;49.24;100140.81;4983773;28;20141;-65
2022/11/15 01:47:19;;;;;;;4.75;1.50;;;;;;;1.61;48.71;100133.28;4995919;28;20357;-64
2022/11/15 01:50:14;;;;;;;3.70;1.23;;;;;;;1.32;48.71;100135.16;4994364;28;20105;-64
2022/11/15 01:52:40;;;;;;;3.40;1.17;;;;;;;1.46;49.59;100125.28;4992474;28;20062;-65
2022/11/15 01:55:20;;;;;;;1.50;1.00;;;;;;;1.58;49.26;100129.81;4982697;28;20038;-65
2022/11/15 01:57:50;;;;;;;2.03;1.40;;;;;;;1.33;49.68;100096.09;4967472;28;20031;-66
2022/11/15 02:00:16;;;;;;;1.85;1.30;;;;;;;1.50;48.85;100114.34;4983935;28;20042;-65
2022/11/15 02:02:42;;;;;;;2.85;1.13;;;;;;;1.60;49.03;100121.34;4983677;28;20027;-65
2022/11/15 02:05:08;;;;;;;2.33;1.10;;;;;;;1.53;50.05;100132.25;4998021;28;20023;-65
2022/11/15 02:07:35;;;;;;;3.22;1.10;;;;;;;1.44;50.23;100117.59;4996743;28;20077;-66
2022/11/15 02:10:14;;;;;;;3.13;1.33;;;;;;;1.51;49.14;100121.13;4987418;28;20050;-65
2022/11/15 02:12:41;;;;;;;2.72;1.23;;;;;;;1.60;49.97;100125.59;4986977;28;20034;-65
2022/11/15 02:15:08;;;;;;;3.20;1.50;;;;;;;1.60;49.61;100115.41;4986971;28;20315;-64
2022/11/15 02:18:16;;;;;;;3.50;1.40;;;;;;;1.51;49.18;100104.16;4986850;28;20238;-65
2022/11/15 02:21:19;;;;;;;2.78;1.35;;;;;;;1.57;50.83;100125.50;4987046;28;20222;-65
2022/11/15 02:24:06;;;;;;;5.53;1.98;;;;;;;1.63;49.58;100126.53;4997465;28;20192;-64
2022/11/15 02:26:32;;;;;;;5.47;1.45;;;;;;;1.64;49.58;100123.16;4989073;28;20030;-64
2022/11/15 02:29:10;;;;;;;5.13;1.60;;;;;;;1.33;50.59;100102.03;4986865;28;20038;-65
2022/11/15 02:31:50;;;;;;;4.78;1.90;;;;;;;1.57;51.08;100110.19;4986632;28;20344;-66
2022/11/15 02:34:45;;;;;;;3.35;2.00;;;;;;;1.41;50.24;100089.47;4986844;28;20119;-65
2022/11/15 02:37:16;;;;;;;3.90;1.75;;;;;;;1.52;50.95;100092.25;4992244;28;20056;-65
2022/11/15 02:39:55;;;;;;;5.60;1.90;;;;;;;1.46;50.78;100095.53;5003951;28;20097;-64
2022/11/15 02:45:17;;;;;;;3.40;1.73;;;;;;;1.66;50.36;100125.72;4967289;29;20035;-65
2022/11/15 02:47:45;;;;;;;4.68;2.08;;;;;;;1.61;50.48;100100.13;4984280;28;20216;-64
2022/11/15 02:50:15;;;;;;;4.75;1.80;;;;;;;1.51;51.04;100104.16;5000459;28;20065;-64
2022/11/15 02:52:44;;;;;;;5.72;2.05;;;;;;;1.62;50.71;100100.97;4995681;28;20031;-64
2022/11/15 02:55:31;;;;;;;2.00;1.20;;;;;;;1.53;50.31;100092.28;4986502;28;20045;-64
2022/11/15 02:58:08;;;;;;;3.15;1.40;;;;;;;1.45;50.70;100106.53;4971094;28;20026;-65
2022/11/15 03:00:38;;;;;;;4.45;1.98;;;;;;;1.46;52.04;100098.06;4985789;28;20038;-65
2022/11/15 03:03:34;;;;;;;3.20;1.40;;;;;;;1.48;51.49;100076.03;4969704;28;20065;-65
2022/11/15 03:06:03;;;;;;;4.47;1.52;;;;;;;1.29;51.06;100094.28;4986606;28;20050;-66
2022/11/15 03:08:42;;;;;;;3.80;1.35;;;;;;;1.35;51.12;100089.31;4985880;28;20042;-66
2022/11/15 03:11:15;;;;;;;4.80;1.38;;;;;;;1.30;51.19;100098.56;4986045;28;20188;-66
2022/11/15 03:13:57;;;;;;;5.15;1.65;;;;;;;1.33;51.45;100079.06;4985899;28;20037;-64
2022/11/15 03:16:36;;;;;;;2.72;1.40;;;;;;;1.42;51.34;100073.31;4985944;28;20038;-65
2022/11/15 03:19:26;;;;;;;3.33;1.60;;;;;;;1.48;51.53;100078.56;4985619;28;20073;-66
2022/11/15 03:21:55;;;;;;;5.03;1.80;;;;;;;1.35;51.11;100061.25;4986025;28;20134;-65
2022/11/15 03:24:22;;;;;;;4.88;1.75;;;;;;;1.46;50.73;100087.00;5002382;28;20027;-66
2022/11/15 03:26:49;;;;;;;5.25;2.08;;;;;;;1.27;51.22;100081.50;4986899;28;20030;-64
2022/11/15 03:29:20;;;;;;;5.43;1.60;;;;;;;1.30;51.04;100081.56;4985203;28;20038;-64
2022/11/15 03:31:56;;;;;;;3.25;1.60;;;;;;;1.32;50.78;100081.59;4985770;28;20053;-63
2022/11/15 03:34:34;;;;;;;6.10;1.90;;;;;;;1.34;50.73;100077.38;4985505;28;20357;-65
2022/11/15 03:36:59;;;;;;;4.95;1.65;;;;;;;1.35;51.68;100076.56;4985723;28;20038;-64
2022/11/15 03:39:26;;;;;;;3.65;1.92;;;;;;;1.35;51.59;100079.09;4985735;28;20042;-64
2022/11/15 03:42:10;;;;;;;5.80;1.85;;;;;;;1.36;50.96;100086.78;4985514;28;20033;-65
2022/11/15 03:44:41;;;;;;;6.05;2.00;;;;;;;1.01;50.09;100057.94;4984774;28;20026;-65
2022/11/15 03:47:12;;;;;;;2.95;1.45;;;;;;;1.16;50.92;100099.09;4985474;28;20030;-65
2022/11/15 03:49:44;;;;;;;3.20;1.40;;;;;;;0.87;51.57;100055.06;4983568;28;20088;-65
2022/11/15 03:52:10;;;;;;;;;;;;;;;0.94;50.81;100079.00;4985731;28;20441;-66
2022/11/15 03:54:35;;;;;;;2.72;1.30;;;;;;;1.03;51.12;100092.00;4985353;28;19910;-65
2022/11/15 03:57:01;;;;;;;5.82;1.83;;;;;;;1.13;50.89;100085.44;4985633;28;20030;-65
2022/11/15 03:59:26;;;;;;;3.97;1.35;;;;;;;1.18;51.60;100077.06;4983348;28;20242;-64
2022/11/15 04:01:52;;;;;;;2.47;1.42;;;;;;;1.01;51.39;100078.31;4985088;28;20026;-63
2022/11/15 04:04:18;;;;;;;2.45;1.67;;;;;;;0.88;51.82;100058.47;4983975;28;20031;-65
2022/11/15 04:06:43;;;;;;;3.70;1.48;;;;;;;1.11;51.42;100075.19;4984840;28;20037;-64
2022/11/15 04:09:09;;;;;;;2.75;1.45;;;;;;;1.00;51.64;100069.81;4985197;28;20033;-65
2022/11/15 04:11:34;;;;;;;4.13;1.30;;;;;;;0.97;52.84;100068.88;4984973;28;20023;-64
2022/11/15 04:14:00;;;;;;;5.15;1.80;;;;;;;0.97;52.33;100071.44;4983639;28;20034;-64
2022/11/15 04:16:26;;;;;;;5.03;1.60;;;;;;;1.08;51.99;100061.50;4984648;28;20057;-64
2022/11/15 04:24:11;;;;;;;4.63;1.63;;;;;;;1.16;51.58;100055.72;4984988;28;21704;-65
2022/11/15 04:24:21;;;;;;;4.75;1.70;;;;;;;0.97;52.91;100057.00;5001385;28;20072;-64
2022/11/15 04:26:47;;;;;;;4.03;1.50;;;;;;;1.00;52.63;100061.31;4986182;28;20200;-65
2022/11/15 04:31:56;;;;;;;3.78;1.73;;;;;;;0.93;52.61;100057.75;4984676;28;20077;-64
2022/11/15 04:34:22;;;;;;;7.30;1.88;;;;;;;0.91;52.83;100056.84;4984744;28;20030;-65
2022/11/15 04:39:31;;;;;;;4.07;1.80;;;;;;;1.08;52.06;100062.34;4984636;28;20027;-64
2022/11/15 04:41:57;;;;;;;5.18;1.90;;;;;;;0.95;54.24;100058.66;4984684;28;20296;-64
2022/11/15 04:44:22;;;;;;;6.00;1.77;;;;;;;0.88;53.69;100061.88;4984394;28;20030;-65
2022/11/15 04:46:48;;;;;;;3.85;1.65;;;;;;;1.03;53.35;100057.16;4983322;28;20046;-64
2022/11/15 04:49:14;;;;;;;4.90;1.50;;;;;;;0.77;53.58;100048.91;4984301;28;20053;-63
2022/11/15 04:51:39;;;;;;;6.05;1.73;;;;;;;0.67;53.67;100011.25;4984096;28;20129;-64
2022/11/15 04:54:05;;;;;;;5.30;1.77;;;;;;;0.93;53.17;100039.91;4984384;28;20167;-65
2022/11/15 04:56:31;;;;;;;2.75;1.60;;;;;;;0.93;52.93;100045.00;4984004;28;20037;-65
2022/11/15 04:58:56;;;;;;;6.05;1.90;;;;;;;0.86;53.18;100038.06;4980817;28;20022;-65
2022/11/15 05:01:22;;;;;;;6.65;2.10;;;;;;;0.94;53.15;100038.22;4990351;28;20053;-63
2022/11/15 05:06:31;;;;;;;6.28;2.00;;;;;;;0.92;53.27;100035.63;4983913;28;20035;-64
2022/11/15 05:08:57;;;;;;;4.68;2.08;;;;;;;1.00;53.24;100031.56;5003266;28;20102;-64
2022/11/15 05:11:23;;;;;;;5.10;1.77;;;;;;;0.85;53.59;100018.47;5002615;28;20265;-63
2022/11/15 05:13:49;;;;;;;6.25;2.28;;;;;;;0.86;53.68;100046.53;4986425;28;20077;-63
2022/11/15 05:16:15;;;;;;;6.60;1.92;;;;;;;0.96;53.28;100039.97;4989601;28;20047;-64
2022/11/15 05:18:41;;;;;;;9.13;2.20;;;;;;;0.99;53.32;100044.28;4983575;28;20073;-64
2022/11/15 05:21:08;;;;;;;6.22;2.35;;;;;;;0.97;52.77;100035.72;4978338;28;20035;-65
2022/11/15 05:23:34;;;;;;;5.13;1.98;;;;;;;1.01;52.69;100033.31;4992252;28;20327;-65
2022/11/15 05:26:01;;;;;;;6.35;2.08;;;;;;;0.80;52.49;100013.28;4992436;28;20038;-64
2022/11/15 05:28:27;;;;;;;6.35;2.00;;;;;;;1.00;52.37;100029.03;4990695;28;20199;-65
2022/11/15 05:30:53;;;;;;;10.05;2.85;;;;;;;1.07;52.78;100021.50;5000779;28;20038;-64
2022/11/15 05:33:19;;;;;;;6.53;3.00;;;;;;;1.05;52.79;100024.03;4983677;28;20031;-64
2022/11/15 05:35:54;;;;;;;5.97;1.95;;;;;;;1.01;52.64;100007.81;4984017;28;20038;-64
2022/11/15 05:38:20;;;;;;;6.78;2.15;;;;;;;1.08;52.45;100021.53;4976508;28;20584;-63
2022/11/15 05:40:46;;;;;;;4.97;2.30;;;;;;;1.00;52.04;100023.06;4978309;28;20187;-64
2022/11/15 05:43:11;;;;;;;7.10;2.13;;;;;;;0.84;53.20;100025.28;4995381;28;20088;-66
2022/11/15 05:45:37;;;;;;;6.00;1.95;;;;;;;0.99;52.97;100009.44;4988288;28;20093;-65
2022/11/15 05:48:08;;;;;;;3.97;2.05;;;;;;;1.02;52.07;100021.41;4987657;28;20035;-63
2022/11/15 05:50:36;;;;;;;4.75;1.90;;;;;;;0.96;52.54;100014.47;5002547;28;20046;-64
2022/11/15 05:53:02;;;;;;;8.80;3.42;;;;;;;1.08;51.98;100019.00;4995050;28;20040;-65
2022/11/15 05:55:28;;;;;;;4.00;1.95;;;;;;;1.16;50.95;100007.28;4987245;28;20293;-65
2022/11/15 05:57:54;;;;;;;3.90;1.83;;;;;;;1.15;51.29;100005.53;4987345;28;20030;-65
2022/11/15 06:00:19;;;;;;;5.10;1.85;;;;;;;1.06;52.17;99991.75;4987232;28;20034;-64
2022/11/15 06:02:45;;;;;;;6.22;1.90;;;;;;;1.17;52.43;100003.06;4981478;28;20042;-64
2022/11/15 06:05:10;;;;;;;8.38;2.22;;;;;;;1.30;52.40;100007.56;4991966;28;20108;-64
2022/11/15 06:07:36;;;;;;;6.20;2.00;;;;;;;1.29;52.00;99997.34;4999047;28;20035;-64
2022/11/15 06:10:02;;;;;;;7.00;2.45;;;;;;;1.41;52.21;100012.91;4987323;28;20342;-64
2022/11/15 06:12:28;;;;;;;6.60;2.20;;;;;;;1.47;51.62;100012.16;4987286;28;20033;-67
2022/11/15 06:14:54;;;;;;;9.65;2.88;;;;;;;1.51;51.58;100009.72;4987215;28;20027;-65
2022/11/15 06:17:19;;;;;;;5.28;2.22;;;;;;;1.39;51.89;99994.16;4986670;28;20034;-65
2022/11/15 06:19:45;;;;;;;6.95;2.42;;;;;;;1.30;51.12;100001.63;4987258;28;20027;-65
2022/11/15 06:22:11;;;;;;;7.05;2.30;;;;;;;1.39;50.92;99994.16;4992331;28;20026;-65
2022/11/15 06:24:36;;;;;;;7.78;2.28;;;;;;;1.44;51.06;100002.78;4996015;28;20208;-65
2022/11/15 06:27:02;;;;;;;6.35;2.03;;;;;;;1.34;51.03;99995.72;4994373;28;20207;-65
2022/11/15 06:29:27;;;;;;;5.53;2.20;;;;;;;1.46;50.61;99990.88;4986333;28;20039;-64
2022/11/15 06:31:53;;;;;;;5.30;2.10;;;;;;;1.40;50.09;99985.66;4986909;28;20023;-65
2022/11/15 06:34:19;;;;;;;4.25;2.30;;;;;;;1.39;49.66;99983.94;4986767;28;20026;-65
2022/11/15 06:36:44;;;;;;;2.75;1.92;;;;;;;1.45;50.44;99978.94;4992427;28;20033;-65
2022/11/15 06:39:10;;;;;;;7.18;2.28;;;;;;;1.50;50.74;99982.47;4990696;28;20049;-65
2022/11/15 06:41:36;;;;;;;6.75;2.42;;;;;;;1.42;51.81;99980.59;4986734;28;20027;-65
2022/11/15 06:44:02;;;;;;;7.95;2.67;;;;;;;1.26;50.85;99962.41;4986813;28;20110;-67
2022/11/15 06:46:28;;;;;;;7.93;2.40;;;;;;;1.24;51.12;99976.84;4985453;28;20258;-66
2022/11/15 06:48:54;;;;;;;7.38;2.70;;;;;;;1.15;51.13;99969.84;4986781;28;20039;-66
2022/11/15 06:51:20;;;;;;;6.78;2.05;;;;;;;1.36;51.39;99964.31;4986511;28;20050;-66
2022/11/15 06:53:46;;;;;;;9.05;2.40;;;;;;;1.36;51.24;99974.53;4985799;28;20035;-66
2022/11/15 06:56:11;;;;;;;6.75;2.50;;;;;;;1.35;52.03;99994.91;4977173;28;20091;-65
2022/11/15 06:58:37;;;;;;;8.48;2.67;;;;;;;1.32;51.54;99971.88;4974171;28;20042;-66
2022/11/15 07:01:06;;;;;;;9.00;2.17;;;;;;;1.35;51.50;99951.53;4986570;28;20334;-67
2022/11/15 07:03:33;;;;;;;9.30;2.50;;;;;;;1.40;50.71;99969.47;4995910;28;20038;-66
2022/11/15 07:05:59;;;;;;;7.88;2.55;;;;;;;1.50;50.93;99963.75;4994227;28;20034;-66
2022/11/15 07:08:28;;;;;;;20.05;8.98;;;;;;;1.52;50.47;99939.13;4994369;28;20310;-65
2022/11/15 07:10:55;;;;;;;9.57;3.40;;;;;;;1.57;50.34;99951.97;4992838;28;20034;-65
2022/11/15 07:13:24;;;;;;;7.80;2.38;;;;;;;1.41;51.60;99933.81;4996065;28;20239;-66
2022/11/15 07:15:50;;;;;;;8.32;2.40;;;;;;;1.38;51.06;99934.63;4991919;28;20038;-65
2022/11/15 07:18:16;;;;;;;6.90;2.50;;;;;;;1.41;51.06;99941.47;4995618;28;20039;-65
2022/11/15 07:20:41;;;;;;;8.38;2.90;;;;;;;1.55;51.36;99934.06;4993264;28;20401;-65
2022/11/15 07:23:07;;;;;;;16.23;3.30;;;;;;;1.48;51.05;99937.31;4996512;28;20018;-65
2022/11/15 07:25:32;;;;;;;7.55;3.13;;;;;;;1.54;51.27;99942.56;4995407;28;20206;-66
2022/11/15 07:27:59;;;;;;;6.95;2.75;;;;;;;1.57;51.78;99942.63;4991369;28;20026;-65
2022/11/15 07:30:26;;;;;;;9.05;2.80;;;;;;;1.46;51.40;99947.50;4985705;28;20042;-65
2022/11/15 07:32:59;;;;;;;6.53;2.65;;;;;;;1.59;50.99;99946.06;4992356;28;20026;-66
2022/11/15 07:35:26;;;;;;;5.80;2.65;;;;;;;1.71;51.36;99945.41;4991231;28;20030;-66
2022/11/15 07:37:55;;;;;;;6.93;2.90;;;;;;;1.75;50.68;99926.78;4995440;28;20026;-66
2022/11/15 07:40:21;;;;;;;8.50;3.70;;;;;;;1.72;50.57;99942.91;4995139;28;20022;-65
2022/11/15 07:42:53;;;;;;;8.55;3.75;;;;;;;1.77;50.99;99926.78;4995632;28;20039;-66
2022/11/15 07:45:20;;;;;;;9.55;2.95;;;;;;;1.80;50.34;99912.41;4992280;28;20030;-66
2022/11/15 07:47:47;;;;;;;7.72;3.05;;;;;;;1.68;50.41;99922.38;4994333;28;20081;-65
2022/11/15 07:50:12;;;;;;;5.82;3.03;;;;;;;1.61;50.92;99923.09;4993078;28;20042;-65
2022/11/15 07:52:38;;;;;;;10.27;2.47;;;;;;;1.79;50.57;99922.59;4995601;28;20038;-65
2022/11/15 07:55:05;;;;;;;8.50;2.80;;;;;;;1.72;50.30;99921.63;4996223;28;20246;-65
2022/11/15 07:57:30;;;;;;;10.32;3.42;;;;;;;1.53;50.65;99913.63;4993614;28;20015;-66
2022/11/15 07:59:56;;;;;;;10.95;3.53;;;;;;;1.60;51.39;99912.06;4996084;28;20023;-65
2022/11/15 08:02:22;;;;;;;12.55;3.88;;;;;;;1.72;51.80;99914.84;4995838;28;20026;-66
2022/11/15 08:04:47;;;;;;;8.38;3.17;;;;;;;1.52;50.98;99873.59;4995905;28;20031;-66
2022/11/15 08:07:13;;;;;;;10.70;2.60;;;;;;;1.75;51.24;99908.06;4995310;28;20030;-65
2022/11/15 08:09:39;;;;;;;11.02;3.13;;;;;;;1.76;50.97;99907.22;4994273;28;20023;-65
2022/11/15 08:12:05;;;;;;;7.22;2.70;;;;;;;1.68;51.19;99904.53;5001303;28;20026;-67
2022/11/15 08:14:31;;;;;;;10.52;2.97;;;;;;;1.68;51.23;99915.63;4993183;28;20022;-65
2022/11/15 08:16:56;;;;;;;9.32;2.78;;;;;;;1.70;50.29;99911.38;4995707;28;20073;-66
2022/11/15 08:19:22;;;;;;;5.22;2.47;;;;;;;1.73;50.64;99908.03;4996382;28;20022;-66
2022/11/15 08:21:48;;;;;;;10.10;2.72;;;;;;;1.67;50.63;99902.81;4992630;28;20214;-66
2022/11/15 08:24:14;;;;;;;9.80;2.95;;;;;;;1.64;50.70;99912.94;4998204;28;20026;-66
2022/11/15 08:26:40;;;;;;;7.47;2.63;;;;;;;1.71;50.52;99905.44;4984772;28;20035;-66
2022/11/15 08:29:08;;;;;;;6.22;2.67;;;;;;;1.77;51.00;99904.69;4995027;28;20345;-66
2022/11/15 08:31:36;;;;;;;15.50;2.88;;;;;;;1.74;51.21;99894.44;5003816;28;20042;-66
2022/11/15 08:34:02;;;;;;;9.82;3.47;;;;;;;1.81;50.92;99883.50;5002634;28;20030;-66
2022/11/15 08:36:28;;;;;;;7.85;3.28;;;;;;;1.42;51.79;99897.25;4984185;28;20066;-65
2022/11/15 08:38:54;;;;;;;9.90;3.10;;;;;;;1.64;51.70;99890.84;5001310;28;20082;-67
2022/11/15 08:41:29;;;;;;;12.30;3.20;;;;;;;1.37;51.84;99889.50;4991294;28;20042;-66
2022/11/15 08:43:55;;;;;;;12.32;3.05;;;;;;;1.31;51.81;99894.50;4984211;28;20034;-66
2022/11/15 08:46:21;;;;;;;16.23;3.38;;;;;;;1.14;52.68;99876.31;4984509;28;20093;-65
2022/11/15 08:48:47;;;;;;;24.73;3.83;;;;;;;1.20;52.75;99884.06;4984229;28;20108;-65
2022/11/15 08:51:12;;;;;;;10.43;3.13;;;;;;;1.36;52.91;99879.28;4984030;28;20043;-66
2022/11/15 08:53:38;;;;;;;13.57;3.65;;;;;;;1.46;52.16;99867.56;4984011;28;20223;-65
2022/11/15 08:56:08;;;;;;;15.77;3.80;;;;;;;1.32;52.07;99888.53;4984026;28;20053;-64
2022/11/15 08:58:34;;;;;;;12.55;3.10;;;;;;;1.44;52.68;99875.19;4989833;28;20034;-66
2022/11/15 09:01:00;;;;;;;10.23;3.00;;;;;;;1.15;52.31;99878.00;5002624;28;20026;-66
2022/11/15 09:03:25;;;;;;;8.50;3.53;;;;;;;1.12;52.72;99854.16;4984160;28;20026;-66
2022/11/15 09:06:00;;;;;;;9.75;3.60;;;;;;;1.26;52.25;99864.63;4984169;28;20114;-66
2022/11/15 09:08:29;;;;;;;15.68;3.55;;;;;;;1.24;51.87;99853.53;4996379;28;20034;-66
2022/11/15 09:10:55;;;;;;;9.40;2.75;;;;;;;1.53;52.35;99857.47;4995238;28;20026;-65
2022/11/15 09:13:21;;;;;;;15.80;4.00;;;;;;;1.63;52.10;99858.50;4991065;28;20268;-67
2022/11/15 09:15:47;;;;;;;8.98;3.35;;;;;;;1.31;52.33;99865.56;4993295;28;20029;-65
2022/11/15 09:18:12;;;;;;;13.38;3.55;;;;;;;1.05;52.94;99859.97;4983904;28;20049;-65
2022/11/15 09:20:38;;;;;;;10.68;3.42;;;;;;;0.89;53.24;99858.81;4983848;28;20034;-65
2022/11/15 09:23:05;;;;;;;12.68;3.65;;;;;;;1.04;52.88;99859.09;4990299;28;20026;-64
2022/11/15 09:25:31;;;;;;;8.13;2.95;;;;;;;1.09;53.46;99849.00;5003103;28;20081;-67
2022/11/15 09:27:57;;;;;;;13.60;4.10;;;;;;;1.14;53.19;99838.06;5002871;28;20042;-66
2022/11/15 09:30:24;;;;;;;10.65;3.13;;;;;;;1.50;52.97;99844.66;4992889;28;20022;-66
2022/11/15 09:32:49;;;;;;;10.32;3.25;;;;;;;1.62;52.59;99846.56;4992632;28;20054;-66
2022/11/15 09:35:15;;;;;;;11.07;3.42;;;;;;;1.70;52.71;99827.13;4989712;28;20027;-66
2022/11/15 09:37:41;;;;;;;16.95;3.67;;;;;;;1.77;52.58;99835.78;4984570;28;20085;-66
2022/11/15 09:40:11;;;;;;;19.55;6.78;;;;;;;1.87;52.14;99835.06;4983723;28;20034;-66
2022/11/15 09:42:55;;;;;;;14.05;3.53;;;;;;;1.66;51.97;99839.84;4983579;28;20030;-66
2022/11/15 09:45:20;;;;;;;12.10;3.13;;;;;;;1.79;51.81;99833.25;4983647;28;20030;-67
2022/11/15 09:47:49;;;;;;;5.93;2.53;;;;;;;1.92;51.64;99839.41;4983864;28;20026;-67
2022/11/15 09:50:22;;;;;;;11.60;3.35;;;;;;;1.82;51.48;99821.38;4994276;28;20196;-66
2022/11/15 09:52:48;;;;;;;8.38;3.22;;;;;;;1.55;51.44;99826.88;4996348;28;20042;-67
2022/11/15 09:55:21;;;;;;;11.00;3.13;;;;;;;1.72;51.41;99828.03;4992885;28;20034;-66
2022/11/15 09:58:28;;;;;;;5.88;3.15;;;;;;;1.59;51.35;99832.91;4994206;28;20446;-66
2022/11/15 10:00:57;;;;;;;13.32;3.95;;;;;;;1.68;51.91;99810.06;4990950;28;20027;-66
2022/11/15 10:03:28;;;;;;;9.65;3.33;;;;;;;1.23;52.04;99813.53;4991852;28;20034;-66
2022/11/15 10:06:00;;;;;;;10.27;3.40;;;;;;;1.59;51.48;99817.59;4990911;28;20040;-67
2022/11/15 10:08:46;;;;;;;6.05;3.00;;;;;;;1.81;51.32;99817.13;4992700;28;20038;-66
2022/11/15 10:11:17;;;;;;;9.10;3.28;;;;;;;1.75;51.01;99805.94;4989137;28;20290;-66
2022/11/15 10:13:47;;;;;;;15.27;3.28;;;;;;;1.90;51.24;99817.25;4994924;28;20042;-67
2022/11/15 10:16:46;;;;;;;9.30;3.08;;;;;;;1.95;51.47;99807.09;4983408;28;20042;-67
2022/11/15 10:19:15;;;;;;;10.27;2.97;;;;;;;1.99;51.85;99802.91;4983544;28;20027;-67
2022/11/15 10:22:14;;;;;;;11.70;3.78;;;;;;;1.65;51.86;99766.63;4983429;28;20026;-66
2022/11/15 10:24:44;;;;;;;7.82;3.67;;;;;;;1.77;51.77;99778.72;5002204;28;20032;-66
2022/11/15 10:27:16;;;;;;;10.55;3.65;;;;;;;1.89;51.88;99753.38;4984977;28;20058;-67
2022/11/15 10:29:44;;;;;;;7.78;3.53;;;;;;;1.91;51.37;99774.72;4985600;28;20065;-68
2022/11/15 10:32:12;;;;;;;9.10;3.33;;;;;;;1.92;51.58;99780.66;4986653;28;20085;-67
2022/11/15 10:34:37;;;;;;;9.07;3.25;;;;;;;2.06;52.04;99776.63;4986290;28;20022;-67
2022/11/15 10:37:03;;;;;;;10.52;3.22;;;;;;;2.02;51.33;99772.31;4986575;28;20054;-67
2022/11/15 10:39:29;;;;;;;11.90;3.53;;;;;;;1.74;51.93;99774.44;4989713;28;20105;-66
2022/11/15 10:41:55;;;;;;;10.55;3.83;;;;;;;1.85;52.21;99765.25;4986723;28;20034;-66
2022/11/15 10:44:28;;;;;;;10.02;3.83;;;;;;;1.61;52.89;99769.97;4991409;28;20025;-67
2022/11/15 10:46:53;;;;;;;7.43;3.60;;;;;;;1.52;53.35;99768.97;4994988;28;20030;-66
2022/11/15 10:49:28;;;;;;;10.35;3.53;;;;;;;1.41;53.14;99765.41;4995121;28;20042;-67
2022/11/15 10:52:12;;;;;;;11.77;3.65;;;;;;;1.32;53.99;99767.78;5000327;28;20345;-69
2022/11/15 10:54:59;;;;;;;7.90;3.70;;;;;;;1.61;53.65;99764.88;4998653;28;20034;-68
2022/11/15 10:57:28;;;;;;;11.43;4.00;;;;;;;1.67;53.50;99742.84;4984472;28;20081;-67
2022/11/15 11:00:00;;;;;;;8.40;3.40;;;;;;;1.69;53.37;99765.84;4986155;28;20027;-65
2022/11/15 11:02:31;;;;;;;11.73;4.10;;;;;;;1.63;53.49;99755.56;4994463;28;20361;-66
2022/11/15 11:04:58;;;;;;;8.35;3.55;;;;;;;1.69;53.59;99753.09;4994779;28;20044;-66
2022/11/15 11:07:27;;;;;;;10.25;3.30;;;;;;;1.81;53.51;99735.41;4994181;28;20030;-65
2022/11/15 11:10:21;;;;;;;13.40;4.15;;;;;;;1.75;53.78;99745.50;4995343;28;20090;-65
2022/11/15 11:12:46;;;;;;;14.65;4.00;;;;;;;1.75;53.82;99737.84;4987867;28;20393;-67
2022/11/15 11:15:14;;;;;;;12.77;3.42;;;;;;;1.82;53.64;99728.59;4986234;28;20026;-67
2022/11/15 11:17:48;;;;;;;11.10;3.65;;;;;;;1.82;52.99;99732.00;4992220;28;20219;-66
2022/11/15 11:20:28;;;;;;;9.23;3.88;;;;;;;1.47;53.69;99724.69;4992423;28;20041;-66
2022/11/15 11:23:03;;;;;;;14.27;3.50;;;;;;;1.58;53.79;99729.09;4991938;28;20026;-68
2022/11/15 11:25:43;;;;;;;11.95;3.33;;;;;;;1.73;53.56;99725.06;4987531;28;20090;-66
2022/11/15 11:28:25;;;;;;;10.88;3.67;;;;;;;1.83;53.69;99727.78;4986785;28;20038;-67
2022/11/15 11:31:10;;;;;;;11.43;3.55;;;;;;;1.82;53.19;99698.81;5005215;28;20069;-66
2022/11/15 11:34:07;;;;;;;8.75;3.20;;;;;;;1.75;53.30;99716.59;4976073;28;20089;-67
2022/11/15 11:36:32;;;;;;;7.00;2.80;;;;;;;1.70;53.77;99719.06;4974453;28;20033;-66
2022/11/15 11:39:33;;;;;;;17.88;3.92;;;;;;;1.73;54.12;99708.91;5000863;28;20085;-66
2022/11/15 11:42:07;;;;;;;14.35;4.63;;;;;;;1.49;54.92;99705.13;5005286;28;20338;-66
2022/11/15 11:44:52;;;;;;;4.85;3.53;;;;;;;1.46;54.46;99684.69;4994019;28;20097;-66
2022/11/15 11:47:36;;;;;;;8.50;3.00;;;;;;;1.75;54.18;99698.72;4995463;28;20050;-66
2022/11/15 11:50:32;;;;;;;8.85;3.33;;;;;;;1.78;55.02;99693.66;4991547;28;20037;-66
2022/11/15 11:53:29;;;;;;;13.32;3.65;;;;;;;1.75;55.11;99691.06;4976826;28;20067;-66
2022/11/15 11:56:04;;;;;;;6.85;2.85;;;;;;;1.67;54.69;99691.81;4983810;28;20034;-68
2022/11/15 11:58:41;;;;;;;10.30;3.58;;;;;;;1.47;55.38;99676.19;4976598;28;20034;-66
2022/11/15 12:01:14;;;;;;;12.40;3.40;;;;;;;1.31;55.75;99674.22;4974213;28;20019;-66